Birobidzhan, Russia
Current Conditions -  °F | °C
As of 11:30 PM on Sunday 21 Dec 2014 (Local Time) from UHHH Reporting Station
Clear Clear  
Wind Chill: -43°   Ceiling: Unl
Heat Index: -17°   Visibility: 6mi
Dew Point: -26°   Wind: 18mph
Humidity: 64%   Direction: 240°WSW
Pressure: 29.62"   Gusts: NA
Location:  48.8°N, 132.95°E
Report Text: UHHH 211530Z 24008MPS CAVOK M27/M32 Q1003 NOSIG RMK QFE746/099423090060
Loading
Personal Weather Stations






























Interactive Weather Map New forecast layout! Learn more

10-Day Weather Forecast

Advertisements
Track Severe Weather on mobile